Time;durP1;ratioP1;P1;durP2;ratioP2;P2;SDS_P1;SDS_P2;PMS_P1;PMS_P2;Temp;Humidity;BMP_temperature;BMP_pressure;BME280_temperature;BME280_humidity;BME280_pressure;Samples;Min_cycle;Max_cycle;Signal;HPM_P1;HPM_P2
2023/02/14 00:00:02;;;;;;;54.63;29.58;;;2.30;99.90;;;;;;4898150;29;20045;-80
2023/02/14 00:02:28;;;;;;;51.40;31.02;;;2.30;99.90;;;;;;4897951;29;20047;-80
2023/02/14 00:05:01;;;;;;;48.95;29.83;;;2.40;99.90;;;;;;4883479;29;20049;-80
2023/02/14 00:07:27;;;;;;;53.47;30.23;;;2.60;99.90;;;;;;4883656;29;20096;-80
2023/02/14 00:09:54;;;;;;;47.97;29.15;;;2.30;99.90;;;;;;4884175;29;20040;-80
2023/02/14 00:12:20;;;;;;;51.83;30.98;;;2.70;99.90;;;;;;4901223;29;20072;-80
2023/02/14 00:17:35;;;;;;;61.20;31.63;;;2.30;99.90;;;;;;4896841;29;20052;-80
2023/02/14 00:20:00;;;;;;;53.33;31.42;;;2.30;99.90;;;;;;4879587;29;20051;-79
2023/02/14 00:22:26;;;;;;;54.70;31.80;;;2.70;99.90;;;;;;4896917;29;20052;-80
2023/02/14 00:24:52;;;;;;;46.50;28.17;;;2.40;99.90;;;;;;4898507;29;20049;-80
2023/02/14 00:27:18;;;;;;;55.90;31.10;;;2.40;99.90;;;;;;4889893;29;20057;-80
2023/02/14 00:29:44;;;;;;;51.47;29.90;;;2.40;99.90;;;;;;4883002;29;20041;-80
2023/02/14 00:32:10;;;;;;;51.15;31.85;;;3.20;99.90;;;;;;4893319;29;20060;-80
2023/02/14 00:34:36;;;;;;;62.70;33.70;;;2.60;99.90;;;;;;4880165;29;20164;-79
2023/02/14 00:37:02;;;;;;;56.80;34.30;;;3.50;99.90;;;;;;4895435;29;20233;-80
2023/02/14 00:39:28;;;;;;;62.50;34.38;;;2.80;99.90;;;;;;4895702;29;20108;-79
2023/02/14 00:41:57;;;;;;;54.80;32.80;;;2.00;99.90;;;;;;4894848;29;20120;-80
2023/02/14 00:44:23;;;;;;;56.10;32.85;;;3.00;99.90;;;;;;4883933;29;20083;-80
2023/02/14 00:46:52;;;;;;;57.25;34.10;;;3.00;99.90;;;;;;4880242;29;20139;-80
2023/02/14 00:49:17;;;;;;;52.67;32.88;;;2.90;99.90;;;;;;4881623;29;20045;-80
2023/02/14 00:51:46;;;;;;;60.58;34.13;;;2.90;99.90;;;;;;4882748;29;20045;-80
2023/02/14 00:54:14;;;;;;;63.13;33.80;;;3.60;99.90;;;;;;4896921;29;20044;-80
2023/02/14 00:56:40;;;;;;;64.28;33.67;;;3.60;99.90;;;;;;4881353;29;20048;-79
2023/02/14 00:59:07;;;;;;;68.97;34.42;;;2.70;99.90;;;;;;4897682;29;20047;-81
2023/02/14 01:01:33;;;;;;;63.10;33.83;;;2.60;99.90;;;;;;4884263;29;20056;-78
2023/02/14 01:04:01;;;;;;;54.50;31.48;;;2.50;99.90;;;;;;4895740;29;20048;-81
2023/02/14 01:06:27;;;;;;;68.18;35.03;;;2.70;99.90;;;;;;4897161;29;20110;-81
2023/02/14 01:08:53;;;;;;;58.55;31.88;;;2.50;99.90;;;;;;4892945;29;20370;-80
2023/02/14 01:11:20;;;;;;;47.40;30.48;;;2.40;99.90;;;;;;4883989;29;21290;-79
2023/02/14 01:13:48;;;;;;;48.88;30.83;;;2.30;99.90;;;;;;4902279;29;20504;-79
2023/02/14 01:16:17;;;;;;;61.25;32.33;;;2.80;99.90;;;;;;4884417;29;20041;-79
2023/02/14 01:18:44;;;;;;;55.47;31.42;;;2.40;99.90;;;;;;4881636;29;20203;-79
2023/02/14 01:21:28;;;;;;;50.53;30.88;;;2.50;99.90;;;;;;4905536;29;20044;-80
2023/02/14 01:23:57;;;;;;;45.17;29.60;;;2.20;99.90;;;;;;4887044;29;20053;-79
2023/02/14 01:26:24;;;;;;;50.00;30.63;;;2.60;99.90;;;;;;4898811;29;20053;-79
2023/02/14 01:28:50;;;;;;;55.20;31.80;;;2.50;99.90;;;;;;4884764;29;20044;-79
2023/02/14 01:31:22;;;;;;;54.30;30.52;;;2.70;99.90;;;;;;4900083;29;20068;-80
2023/02/14 01:33:49;;;;;;;62.63;34.25;;;2.30;99.90;;;;;;4886135;29;20679;-79
2023/02/14 01:36:27;;;;;;;68.72;36.45;;;2.60;99.90;;;;;;4883682;29;20719;-79
2023/02/14 01:38:56;;;;;;;72.53;38.22;;;2.50;99.90;;;;;;4900734;29;20049;-79
2023/02/14 01:41:27;;;;;;;78.18;40.65;;;2.80;99.90;;;;;;4898592;29;20104;-79
2023/02/14 01:43:59;;;;;;;74.05;40.17;;;3.00;99.90;;;;;;4894736;29;20094;-80
2023/02/14 01:46:27;;;;;;;75.65;39.55;;;3.40;99.90;;;;;;4894793;29;20140;-80
2023/02/14 01:48:59;;;;;;;76.75;39.53;;;3.20;99.90;;;;;;4884792;29;20866;-80
2023/02/14 01:51:25;;;;;;;86.05;40.85;;;3.80;99.90;;;;;;4883783;29;20178;-80
2023/02/14 01:53:57;;;;;;;76.05;41.03;;;3.80;99.90;;;;;;4881997;29;20704;-80
2023/02/14 01:56:29;;;;;;;80.65;41.65;;;3.10;99.90;;;;;;4893041;29;20048;-80
2023/02/14 01:59:00;;;;;;;83.95;42.15;;;3.30;99.90;;;;;;4893352;29;20045;-80
2023/02/14 02:01:29;;;;;;;83.93;41.90;;;3.30;99.90;;;;;;4878592;29;20557;-80
2023/02/14 02:04:08;;;;;;;75.72;38.80;;;3.20;99.90;;;;;;4880417;29;20444;-80
2023/02/14 02:06:43;;;;;;;73.18;38.78;;;3.20;99.90;;;;;;4878243;29;20053;-79
2023/02/14 02:09:37;;;;;;;86.43;40.70;;;3.70;99.90;;;;;;4880964;29;20518;-80
2023/02/14 02:12:04;;;;;;;80.45;41.70;;;3.40;99.90;;;;;;4912632;29;20048;-80
2023/02/14 02:14:30;;;;;;;68.88;38.65;;;3.60;99.90;;;;;;4878486;29;20045;-80
2023/02/14 02:17:19;;;;;;;77.95;40.63;;;3.30;99.90;;;;;;4877324;29;20036;-80
2023/02/14 02:20:27;;;;;;;82.75;40.90;;;3.20;99.90;;;;;;4894834;29;20119;-79
2023/02/14 02:23:23;;;;;;;72.95;38.83;;;3.10;99.90;;;;;;4894036;29;20111;-80
2023/02/14 02:26:20;;;;;;;76.80;38.92;;;3.00;99.90;;;;;;4873122;29;20166;-79
2023/02/14 02:29:08;;;;;;;70.80;37.55;;;2.40;99.90;;;;;;4879578;29;20130;-79
2023/02/14 02:32:02;;;;;;;68.82;37.42;;;4.10;99.90;;;;;;4869945;29;20150;-80
2023/02/14 02:35:11;;;;;;;71.88;37.28;;;2.90;99.90;;;;;;4876930;29;20048;-80
2023/02/14 02:37:55;;;;;;;69.10;36.60;;;2.90;99.90;;;;;;4888289;29;20091;-80
2023/02/14 02:40:54;;;;;;;73.55;38.50;;;2.90;99.90;;;;;;4878218;29;20183;-79
2023/02/14 02:43:44;;;;;;;76.05;39.20;;;2.90;99.90;;;;;;4892614;29;20056;-79
2023/02/14 02:55:21;;;;;;;68.35;36.58;;;2.80;99.90;;;;;;4888630;29;20040;-79
2023/02/14 02:57:52;;;;;;;58.45;33.65;;;2.80;99.90;;;;;;4873448;29;20052;-80
2023/02/14 03:00:27;;;;;;;58.92;32.30;;;2.90;99.90;;;;;;4875722;29;20107;-79
2023/02/14 03:05:46;;;;;;;64.88;33.83;;;1.80;99.90;;;;;;4893866;29;19930;-80
2023/02/14 03:08:12;;;;;;;70.80;35.67;;;3.30;99.90;;;;;;4891569;29;20131;-80
2023/02/14 03:10:39;;;;;;;91.18;37.15;;;2.80;99.90;;;;;;4900086;29;20128;-80
2023/02/14 03:13:32;;;;;;;60.35;33.72;;;2.50;99.90;;;;;;4895479;29;20035;-80
2023/02/14 03:16:20;;;;;;;68.80;33.95;;;2.60;99.90;;;;;;4895747;29;20071;-79
2023/02/14 03:22:20;;;;;;;59.78;32.40;;;2.50;99.90;;;;;;4892516;29;20040;-80
2023/02/14 03:24:57;;;;;;;66.90;35.42;;;2.40;99.90;;;;;;4874111;29;20124;-80
2023/02/14 03:27:48;;;;;;;72.10;35.92;;;3.00;99.90;;;;;;4895570;29;20157;-79
2023/02/14 03:30:36;;;;;;;74.85;36.80;;;2.50;99.90;;;;;;4892673;29;20037;-80
2023/02/14 03:33:19;;;;;;;79.13;37.05;;;2.80;99.90;;;;;;4881410;29;20055;-79
2023/02/14 03:36:00;;;;;;;67.82;35.25;;;2.50;99.90;;;;;;4875095;29;20041;-79
2023/02/14 03:38:50;;;;;;;64.22;34.40;;;2.50;99.90;;;;;;4896421;29;20112;-80
2023/02/14 03:41:32;;;;;;;63.63;34.38;;;2.50;99.90;;;;;;4896823;29;20105;-80
2023/02/14 03:44:08;;;;;;;58.45;32.78;;;2.90;99.90;;;;;;4890982;29;20999;-78
2023/02/14 03:46:48;;;;;;;79.50;36.97;;;2.30;99.90;;;;;;4893347;29;20051;-80
2023/02/14 03:49:22;;;;;;;64.28;34.90;;;2.60;99.90;;;;;;4894386;29;20037;-80
2023/02/14 03:51:54;;;;;;;70.35;34.67;;;1.60;99.90;;;;;;4897391;29;20607;-79
2023/02/14 03:54:25;;;;;;;79.85;38.17;;;2.30;99.90;;;;;;4893246;29;21007;-79
2023/02/14 03:57:11;;;;;;;111.85;42.67;;;3.60;99.90;;;;;;4890206;29;20144;-80
2023/02/14 03:59:42;;;;;;;75.63;35.03;;;2.30;99.90;;;;;;4894832;29;20036;-80
2023/02/14 04:02:14;;;;;;;287.85;52.13;;;3.00;99.90;;;;;;4876248;29;20041;-80
2023/02/14 04:04:46;;;;;;;87.07;39.15;;;2.20;99.90;;;;;;4877727;29;20513;-80
2023/02/14 04:07:21;;;;;;;98.00;42.17;;;2.20;99.90;;;;;;4882949;29;20131;-80
2023/02/14 04:09:49;;;;;;;86.28;40.28;;;2.40;99.90;;;;;;4875421;29;20033;-80
2023/02/14 04:12:19;;;;;;;91.07;39.80;;;2.30;99.90;;;;;;4891699;29;20160;-80
2023/02/14 04:14:47;;;;;;;97.57;41.58;;;2.30;99.90;;;;;;4893713;29;20041;-80
2023/02/14 04:20:00;;;;;;;115.93;45.97;;;2.50;99.90;;;;;;4896348;29;20187;-79
2023/02/14 04:22:26;;;;;;;76.55;39.63;;;3.80;99.90;;;;;;4894383;29;20491;-80
2023/02/14 04:24:52;;;;;;;95.10;41.25;;;3.00;99.90;;;;;;4892317;29;20096;-79
2023/02/14 04:27:29;;;;;;;84.75;40.75;;;2.40;99.90;;;;;;4878847;29;20139;-80
2023/02/14 04:29:55;;;;;;;76.85;38.78;;;2.40;99.90;;;;;;4892494;29;20045;-80
2023/02/14 04:32:22;;;;;;;83.72;40.22;;;3.00;99.90;;;;;;4895676;29;20134;-80
2023/02/14 04:34:50;;;;;;;77.97;38.40;;;2.90;99.90;;;;;;4900984;29;20036;-80
2023/02/14 04:37:18;;;;;;;77.38;37.85;;;2.30;99.90;;;;;;4878523;29;20164;-80
2023/02/14 04:39:48;;;;;;;81.78;40.15;;;2.80;99.90;;;;;;4878429;29;20079;-80
2023/02/14 04:42:17;;;;;;;74.70;37.58;;;3.00;99.90;;;;;;4912343;29;20088;-80
2023/02/14 04:44:45;;;;;;;82.80;39.75;;;2.90;99.90;;;;;;4885964;29;20075;-80
2023/02/14 04:47:16;;;;;;;80.68;40.30;;;2.20;99.90;;;;;;4878937;29;20123;-80
2023/02/14 04:49:41;;;;;;;77.10;39.22;;;2.50;99.90;;;;;;4893995;29;20052;-80
2023/02/14 04:52:09;;;;;;;84.18;41.08;;;2.30;99.90;;;;;;4898071;29;20051;-80
2023/02/14 04:54:38;;;;;;;76.68;39.17;;;2.50;99.90;;;;;;4879925;29;20048;-80
2023/02/14 04:57:06;;;;;;;70.05;37.30;;;2.60;99.90;;;;;;4895130;29;20140;-79
2023/02/14 04:59:37;;;;;;;58.20;33.75;;;2.50;99.90;;;;;;4904944;29;20048;-79
2023/02/14 05:02:03;;;;;;;70.35;34.35;;;2.40;99.90;;;;;;4894862;29;20071;-83
2023/02/14 05:04:35;;;;;;;63.42;34.00;;;3.30;99.90;;;;;;4894559;29;20099;-80
2023/02/14 05:07:00;;;;;;;55.95;32.63;;;2.20;99.90;;;;;;4897021;29;20044;-83
2023/02/14 05:09:28;;;;;;;65.55;33.50;;;3.10;99.90;;;;;;4876270;29;20045;-80
2023/02/14 05:11:58;;;;;;;65.63;35.35;;;2.70;99.90;;;;;;4898187;29;20135;-79
2023/02/14 05:14:27;;;;;;;48.25;29.33;;;2.00;99.90;;;;;;4899778;29;20044;-81
2023/02/14 05:16:55;;;;;;;56.05;32.83;;;2.50;99.90;;;;;;4901377;29;20095;-79
2023/02/14 05:19:21;;;;;;;91.32;37.35;;;2.40;99.90;;;;;;4901764;29;20056;-82
2023/02/14 05:21:51;;;;;;;45.58;30.20;;;1.90;99.90;;;;;;4882452;29;20095;-80
2023/02/14 05:24:17;;;;;;;43.25;28.38;;;1.90;99.90;;;;;;4891991;29;20176;-82
2023/02/14 05:26:43;;;;;;;50.65;30.02;;;1.70;99.90;;;;;;4896494;29;20144;-80
2023/02/14 05:29:20;;;;;;;43.92;28.98;;;2.40;99.90;;;;;;4890275;29;20045;-80
2023/02/14 05:31:45;;;;;;;39.80;26.80;;;1.00;99.90;;;;;;4873918;29;20045;-78
2023/02/14 05:34:18;;;;;;;41.17;27.83;;;1.90;99.90;;;;;;4891879;29;20037;-81
2023/02/14 05:36:46;;;;;;;52.63;29.20;;;2.20;99.90;;;;;;4887113;29;20087;-80
2023/02/14 05:39:17;;;;;;;64.18;33.28;;;2.50;99.90;;;;;;4873900;29;20111;-80
2023/02/14 05:41:47;;;;;;;39.97;25.95;;;2.10;99.90;;;;;;4889385;29;20550;-79
2023/02/14 05:44:18;;;;;;;40.15;26.27;;;2.00;99.90;;;;;;4891438;29;20491;-80
2023/02/14 05:46:43;;;;;;;37.00;27.27;;;1.80;99.90;;;;;;4904598;29;20104;-80
2023/02/14 05:49:12;;;;;;;36.95;28.10;;;1.80;99.90;;;;;;4893435;29;20415;-80
2023/02/14 05:51:38;;;;;;;40.53;27.80;;;2.80;99.90;;;;;;4894927;29;20039;-81
2023/02/14 05:54:03;;;;;;;31.13;23.30;;;1.70;99.90;;;;;;4893361;29;20036;-78
2023/02/14 05:56:29;;;;;;;34.55;25.50;;;2.00;99.90;;;;;;4870334;29;20044;-78
2023/02/14 05:58:57;;;;;;;32.67;23.45;;;1.80;99.90;;;;;;4877921;29;20045;-80
2023/02/14 06:01:23;;;;;;;36.20;26.23;;;1.90;99.90;;;;;;4893496;29;20053;-80
2023/02/14 06:03:48;;;;;;;46.50;28.45;;;2.00;99.90;;;;;;4885287;29;20084;-78
2023/02/14 06:06:14;;;;;;;59.60;32.25;;;1.60;99.90;;;;;;4888384;29;20121;-80
2023/02/14 06:08:40;;;;;;;65.95;33.13;;;1.80;99.90;;;;;;4874825;29;20041;-80
2023/02/14 06:11:08;;;;;;;59.95;33.13;;;1.60;99.90;;;;;;4886735;29;20088;-79
2023/02/14 06:13:40;;;;;;;54.75;31.70;;;2.40;99.90;;;;;;4873074;29;20041;-83
2023/02/14 06:16:16;;;;;;;62.72;34.08;;;2.00;99.90;;;;;;4872537;29;20036;-81
2023/02/14 06:18:42;;;;;;;64.93;33.22;;;1.70;99.90;;;;;;4874121;29;20516;-83
2023/02/14 06:21:08;;;;;;;58.70;32.92;;;1.90;99.90;;;;;;4870146;29;20049;-82
2023/02/14 06:23:36;;;;;;;50.55;31.85;;;1.60;99.90;;;;;;4878422;29;20115;-80
2023/02/14 06:26:09;;;;;;;62.25;34.58;;;1.70;99.90;;;;;;4874827;29;20084;-81
2023/02/14 06:28:38;;;;;;;;;;;2.00;99.90;;;;;;4876651;29;20044;-78
2023/02/14 06:31:04;;;;;;;59.28;32.90;;;1.70;99.90;;;;;;4878078;29;19988;-79
2023/02/14 06:33:32;;;;;;;50.72;30.65;;;3.30;99.90;;;;;;4887390;29;20137;-79
2023/02/14 06:35:59;;;;;;;46.97;29.65;;;1.70;99.90;;;;;;4887219;29;20049;-78
2023/02/14 06:38:25;;;;;;;47.15;28.48;;;2.50;99.90;;;;;;4878035;29;20132;-78
2023/02/14 06:41:03;;;;;;;46.42;27.88;;;1.70;99.90;;;;;;4868078;29;20056;-79
2023/02/14 06:43:29;;;;;;;41.08;26.63;;;1.60;99.90;;;;;;4870307;29;20053;-79
2023/02/14 06:46:04;;;;;;;62.63;36.92;;;1.50;99.90;;;;;;4866393;29;20055;-80
2023/02/14 06:48:30;;;;;;;55.70;35.00;;;1.40;99.90;;;;;;4884435;29;20052;-80
2023/02/14 06:50:55;;;;;;;50.58;34.45;;;2.40;99.90;;;;;;4883527;29;20096;-78
2023/02/14 06:53:24;;;;;;;51.50;33.83;;;2.30;99.90;;;;;;4866769;29;20041;-80
2023/02/14 06:55:50;;;;;;;55.28;34.97;;;1.40;99.90;;;;;;4871896;29;21369;-80
2023/02/14 06:58:16;;;;;;;57.35;33.85;;;1.60;99.90;;;;;;4869282;29;20057;-79
2023/02/14 07:00:42;;;;;;;47.33;31.83;;;2.20;99.90;;;;;;4870784;29;20175;-79
2023/02/14 07:03:08;;;;;;;35.08;27.05;;;1.60;99.90;;;;;;4874318;29;20384;-79
2023/02/14 07:05:34;;;;;;;37.85;26.35;;;1.30;99.90;;;;;;4890862;29;20071;-81
2023/02/14 07:08:00;;;;;;;39.20;27.48;;;1.30;99.90;;;;;;4887848;29;20104;-78
2023/02/14 07:10:25;;;;;;;37.85;26.90;;;1.30;99.90;;;;;;4892450;29;20044;-79
2023/02/14 07:12:51;;;;;;;35.17;25.38;;;1.60;99.90;;;;;;4894667;29;20052;-78
2023/02/14 07:15:19;;;;;;;37.72;27.10;;;1.60;99.90;;;;;;4884006;29;20044;-79
2023/02/14 07:17:45;;;;;;;33.35;26.42;;;1.50;99.90;;;;;;4895015;29;20048;-80
2023/02/14 07:20:12;;;;;;;35.80;26.73;;;1.60;99.90;;;;;;4881286;29;20047;-80
2023/02/14 07:22:38;;;;;;;34.90;25.48;;;1.60;99.90;;;;;;4889675;29;20131;-79
2023/02/14 07:25:06;;;;;;;35.85;27.17;;;1.60;99.90;;;;;;4876570;29;20044;-80
2023/02/14 07:27:32;;;;;;;36.58;27.10;;;1.50;99.90;;;;;;4874893;29;20142;-80
2023/02/14 07:30:03;;;;;;;34.22;26.90;;;1.60;99.90;;;;;;4879457;29;20127;-79
2023/02/14 07:32:29;;;;;;;39.30;30.73;;;2.10;99.90;;;;;;4892892;29;20043;-80
2023/02/14 07:34:57;;;;;;;35.33;28.48;;;1.80;99.90;;;;;;4895706;29;20033;-78
2023/02/14 07:37:23;;;;;;;38.67;30.85;;;2.70;99.90;;;;;;4879896;29;21018;-79
2023/02/14 07:40:38;;;;;;;38.72;26.67;;;1.70;99.90;;;;;;4886032;29;20045;-79
2023/02/14 07:43:44;;;;;;;35.28;24.92;;;1.70;99.90;;;;;;4910656;29;20082;-83
2023/02/14 07:46:10;;;;;;;51.67;29.80;;;2.50;99.90;;;;;;4875603;29;20388;-80
2023/02/14 07:48:38;;;;;;;34.83;25.25;;;2.40;99.90;;;;;;4884984;29;20044;-81
2023/02/14 07:51:16;;;;;;;31.38;23.92;;;2.30;99.90;;;;;;4889763;29;20067;-82
2023/02/14 07:53:42;;;;;;;32.55;25.38;;;2.10;99.90;;;;;;4889364;29;20607;-80
2023/02/14 07:56:08;;;;;;;33.38;24.80;;;2.30;99.90;;;;;;4875126;29;20037;-79
2023/02/14 07:58:35;;;;;;;30.90;24.77;;;2.60;99.90;;;;;;4879411;29;20036;-81
2023/02/14 08:01:01;;;;;;;31.55;24.50;;;2.40;99.90;;;;;;4886499;29;20048;-82
2023/02/14 08:03:29;;;;;;;32.72;26.10;;;2.40;99.90;;;;;;4894828;29;20243;-84
2023/02/14 08:05:58;;;;;;;31.77;24.85;;;2.50;99.90;;;;;;4875561;29;20352;-81
2023/02/14 08:08:26;;;;;;;33.85;27.13;;;3.50;99.90;;;;;;4893720;29;20063;-80
2023/02/14 08:11:08;;;;;;;36.95;27.25;;;2.60;99.90;;;;;;4900939;29;20185;-82
2023/02/14 08:13:48;;;;;;;32.22;25.95;;;2.60;99.90;;;;;;4890833;29;20175;-81
2023/02/14 08:16:14;;;;;;;28.38;23.58;;;3.30;99.90;;;;;;4874290;29;20049;-81
2023/02/14 08:18:51;;;;;;;31.75;25.20;;;3.50;99.90;;;;;;4890151;29;20373;-81
2023/02/14 08:21:17;;;;;;;27.58;23.75;;;3.80;99.90;;;;;;4897035;29;20095;-82
2023/02/14 08:24:06;;;;;;;30.15;24.85;;;3.90;99.90;;;;;;4881600;29;20395;-81
2023/02/14 08:26:31;;;;;;;28.98;23.38;;;3.10;99.90;;;;;;4895251;29;20411;-79
2023/02/14 08:29:14;;;;;;;28.65;23.75;;;3.10;99.90;;;;;;4878587;29;20037;-83
2023/02/14 08:32:19;;;;;;;;;;;;;;;;;;;;;
2023/02/14 08:34:51;;;;;;;27.50;23.90;;;3.50;99.90;;;;;;4884094;29;20054;-82
2023/02/14 08:37:19;;;;;;;27.48;23.27;;;4.30;99.90;;;;;;4893904;29;20060;-82
2023/02/14 08:39:51;;;;;;;29.52;24.15;;;3.60;99.90;;;;;;4901938;29;20051;-85
2023/02/14 08:42:30;;;;;;;26.90;23.30;;;3.80;99.90;;;;;;4910874;29;20131;-83
2023/02/14 08:45:08;;;;;;;25.67;22.88;;;3.60;99.90;;;;;;4887224;29;20048;-83
2023/02/14 08:47:34;;;;;;;27.15;24.25;;;4.60;99.90;;;;;;4886051;29;20048;-82
2023/02/14 08:50:01;;;;;;;25.85;22.83;;;3.70;99.90;;;;;;4862806;29;20044;-80
2023/02/14 08:52:27;;;;;;;26.63;22.42;;;3.80;99.90;;;;;;4888218;29;20058;-80
2023/02/14 08:55:01;;;;;;;25.05;22.30;;;4.20;99.90;;;;;;4882486;29;20131;-81
2023/02/14 08:57:30;;;;;;;27.85;23.13;;;3.90;99.90;;;;;;4889744;29;21097;-82
2023/02/14 08:59:59;;;;;;;27.52;24.17;;;4.10;99.90;;;;;;4886921;29;20077;-81
2023/02/14 09:02:28;;;;;;;23.58;21.08;;;4.30;99.90;;;;;;4877531;29;20053;-81
2023/02/14 09:05:09;;;;;;;29.92;23.10;;;4.10;99.90;;;;;;4884340;29;20130;-80
2023/02/14 09:07:35;;;;;;;31.40;24.90;;;4.20;99.90;;;;;;4876732;29;20183;-83
2023/02/14 09:10:07;;;;;;;29.25;23.95;;;4.30;99.90;;;;;;4899634;29;20036;-84
2023/02/14 09:12:37;;;;;;;26.38;22.45;;;4.40;99.90;;;;;;4877030;29;20208;-81
2023/02/14 09:15:11;;;;;;;28.52;23.45;;;4.40;99.90;;;;;;4894661;29;20059;-81
2023/02/14 09:17:43;;;;;;;30.00;22.58;;;5.20;99.90;;;;;;4875718;29;20460;-81
2023/02/14 09:20:23;;;;;;;26.75;23.55;;;4.80;99.90;;;;;;4887383;29;20076;-81
2023/02/14 09:22:52;;;;;;;28.60;23.17;;;4.60;99.90;;;;;;4877678;29;20078;-80
2023/02/14 09:25:23;;;;;;;26.02;22.35;;;4.50;99.90;;;;;;4877255;29;20053;-81
2023/02/14 09:27:59;;;;;;;26.27;22.63;;;5.50;99.90;;;;;;4888741;29;20064;-82
2023/02/14 09:33:32;;;;;;;25.48;21.50;;;4.90;99.90;;;;;;4894166;29;20045;-81
2023/02/14 09:36:12;;;;;;;25.77;22.95;;;5.30;99.90;;;;;;4876542;29;20040;-85
2023/02/14 09:39:09;;;;;;;26.00;23.15;;;5.10;99.90;;;;;;4873795;29;20028;-82
2023/02/14 09:42:02;;;;;;;28.65;22.52;;;5.10;99.90;;;;;;4889380;29;20044;-81
2023/02/14 09:44:41;;;;;;;28.83;24.23;;;6.10;99.90;;;;;;4887977;29;20076;-87
2023/02/14 09:47:21;;;;;;;27.95;24.95;;;5.30;99.90;;;;;;4890581;29;20406;-85
2023/02/14 09:49:54;;;;;;;26.67;23.52;;;5.50;99.90;;;;;;4870574;29;20046;-81
2023/02/14 09:52:25;;;;;;;25.88;23.20;;;6.60;99.90;;;;;;4904583;29;20055;-82
2023/02/14 09:55:01;;;;;;;28.40;24.60;;;5.70;99.90;;;;;;4888811;29;21199;-81
2023/02/14 09:58:11;;;;;;;28.02;24.63;;;6.10;99.90;;;;;;4871173;29;20078;-83
2023/02/14 10:00:47;;;;;;;25.38;22.67;;;5.80;99.90;;;;;;4869672;29;20095;-83
2023/02/14 10:03:41;;;;;;;26.90;24.02;;;6.30;99.90;;;;;;4889909;29;20053;-82
2023/02/14 10:06:24;;;;;;;26.17;23.42;;;6.20;99.90;;;;;;4892581;29;20068;-82
2023/02/14 10:09:06;;;;;;;26.88;22.83;;;6.30;99.90;;;;;;4887969;29;20039;-81
2023/02/14 10:11:33;;;;;;;25.85;23.08;;;6.40;99.90;;;;;;4875643;29;20040;-83
2023/02/14 10:14:10;;;;;;;27.02;23.08;;;7.20;99.90;;;;;;4889704;29;20068;-84
2023/02/14 10:16:47;;;;;;;25.83;23.10;;;6.60;99.90;;;;;;4870505;29;20095;-82
2023/02/14 10:19:47;;;;;;;25.33;22.58;;;6.80;99.90;;;;;;4856954;29;20049;-82
2023/02/14 10:22:25;;;;;;;25.35;22.67;;;6.90;99.90;;;;;;4855915;29;20060;-82
2023/02/14 10:25:00;;;;;;;29.15;23.63;;;7.30;99.90;;;;;;4876124;29;20059;-81
2023/02/14 10:27:29;;;;;;;26.65;21.27;;;7.40;99.90;;;;;;4889312;29;20052;-84
2023/02/14 10:29:55;;;;;;;25.40;21.65;;;7.20;99.90;;;;;;4889373;29;20055;-82
2023/02/14 10:32:44;;;;;;;24.33;21.75;;;7.40;99.90;;;;;;4886094;29;21130;-81
2023/02/14 10:35:45;;;;;;;25.13;22.55;;;7.40;99.90;;;;;;4860411;29;20045;-83
2023/02/14 10:38:22;;;;;;;23.67;21.17;;;7.50;99.90;;;;;;4846050;29;20157;-82
2023/02/14 10:41:00;;;;;;;25.52;22.00;;;8.50;99.90;;;;;;4855116;29;20120;-84
2023/02/14 10:43:37;;;;;;;25.55;21.80;;;8.10;99.90;;;;;;4854804;29;20048;-83
2023/02/14 10:46:06;;;;;;;24.15;21.33;;;7.80;99.90;;;;;;4851477;29;20052;-83
2023/02/14 10:48:55;;;;;;;24.85;22.23;;;8.70;99.90;;;;;;4886401;29;20120;-81
2023/02/14 10:51:45;;;;;;;24.13;21.65;;;8.00;99.90;;;;;;4874246;29;20119;-82
2023/02/14 10:54:14;;;;;;;27.98;22.17;;;8.00;99.90;;;;;;4883528;29;20044;-81
2023/02/14 10:56:45;;;;;;;27.05;22.58;;;8.60;99.90;;;;;;4882866;29;20050;-81
2023/02/14 10:59:29;;;;;;;26.17;23.45;;;8.30;99.90;;;;;;4867383;29;20469;-81
2023/02/14 11:01:57;;;;;;;25.77;21.88;;;8.30;99.90;;;;;;4891139;29;20074;-82
2023/02/14 11:04:24;;;;;;;27.35;22.27;;;8.50;99.90;;;;;;4885387;29;20048;-82
2023/02/14 11:06:50;;;;;;;27.13;23.75;;;8.40;99.90;;;;;;4884442;29;20059;-82
2023/02/14 11:09:17;;;;;;;27.58;22.95;;;8.50;99.90;;;;;;4885754;29;20044;-81
2023/02/14 11:11:59;;;;;;;26.30;23.45;;;8.50;99.90;;;;;;5072907;27;20450;-81
2023/02/14 11:14:31;;;;;;;26.00;23.17;;;8.80;99.90;;;;;;5037590;28;20199;-81
2023/02/14 11:17:07;;;;;;;26.63;23.23;;;9.00;99.90;;;;;;5018663;28;20077;-83
2023/02/14 11:19:38;;;;;;;29.90;22.88;;;9.70;99.90;;;;;;5014725;28;20156;-83
2023/02/14 11:22:09;;;;;;;26.30;22.67;;;9.20;99.90;;;;;;5010353;28;20053;-83
2023/02/14 11:28:11;;;;;;;;;;;;;;;;;;;;;
2023/02/14 11:30:46;;;;;;;26.95;23.73;;;10.50;99.90;;;;;;4994110;28;20050;-83
2023/02/14 11:33:32;;;;;;;26.65;22.20;;;10.50;99.90;;;;;;5013536;28;20083;-81
2023/02/14 11:36:16;;;;;;;29.55;24.60;;;10.70;99.90;;;;;;5013182;28;20065;-81
2023/02/14 11:39:02;;;;;;;29.75;23.08;;;10.80;99.90;;;;;;4991691;28;20093;-82
2023/02/14 11:47:49;;;;;;;;;;;11.60;99.90;;;;;;5008648;23;20050;-82
2023/02/14 11:51:00;;;;;;;25.42;22.65;;;11.80;99.90;;;;;;5012586;28;19929;-82
2023/02/14 11:54:53;;;;;;;27.58;22.13;;;11.80;99.90;;;;;;5011796;28;20050;-83
2023/02/14 11:57:50;;;;;;;24.85;21.73;;;11.90;99.90;;;;;;4992177;28;20046;-82
2023/02/14 12:01:17;;;;;;;;;;;;;;;;;;;;;
2023/02/14 12:04:40;;;;;;;22.52;20.23;;;12.10;99.90;;;;;;4981819;28;20397;-83
2023/02/14 12:08:24;;;;;;;22.08;19.77;;;12.40;99.90;;;;;;4969507;28;20140;-83
2023/02/14 12:11:35;;;;;;;;;;;;;;;;;;;;;
2023/02/14 12:14:25;;;;;;;26.35;21.23;;;12.80;99.90;;;;;;4988612;28;20054;-82
2023/02/14 12:20:47;;;;;;;25.55;20.10;;;12.90;99.90;;;;;;5063764;28;20040;-82
2023/02/14 12:24:14;;;;;;;24.02;21.15;;;13.50;99.90;;;;;;5041937;28;20039;-83
2023/02/14 12:26:49;;;;;;;24.65;21.42;;;12.90;99.90;;;;;;4978161;28;20487;-83
2023/02/14 12:29:55;;;;;;;24.27;21.77;;;13.20;99.90;;;;;;4979879;28;20124;-83
2023/02/14 12:32:31;;;;;;;24.17;21.77;;;13.20;99.90;;;;;;4956955;28;20060;-82
2023/02/14 12:35:15;;;;;;;24.70;22.00;;;13.30;99.90;;;;;;4974985;28;20081;-82
2023/02/14 12:38:30;;;;;;;25.63;21.95;;;13.20;99.90;;;;;;4966613;28;20716;-82
2023/02/14 12:41:33;;;;;;;28.45;22.90;;;13.20;99.90;;;;;;4980130;28;20042;-82
2023/02/14 12:44:11;;;;;;;27.08;22.13;;;13.30;99.90;;;;;;4982292;28;20030;-78
2023/02/14 12:46:54;;;;;;;24.63;20.88;;;13.40;99.90;;;;;;4990313;28;20046;-80
2023/02/14 12:49:21;;;;;;;24.30;21.17;;;13.40;99.90;;;;;;4986300;28;20045;-80
2023/02/14 12:52:20;;;;;;;25.23;22.52;;;13.60;99.90;;;;;;4983720;28;20042;-81
2023/02/14 12:55:12;;;;;;;29.25;20.83;;;13.30;99.90;;;;;;4984407;28;21028;-80
2023/02/14 12:57:51;;;;;;;24.92;21.63;;;13.30;99.90;;;;;;4991206;28;20038;-80
2023/02/14 13:00:56;;;;;;;25.50;21.40;;;13.30;99.90;;;;;;4986386;28;20033;-81
2023/02/14 13:03:57;;;;;;;23.92;21.38;;;13.20;99.90;;;;;;4965930;28;20492;-80
2023/02/14 13:06:33;;;;;;;24.35;20.33;;;13.30;99.90;;;;;;4990208;28;20081;-80
2023/02/14 13:09:18;;;;;;;24.60;21.88;;;13.50;99.90;;;;;;5000255;28;20050;-80
2023/02/14 13:11:49;;;;;;;23.55;20.08;;;13.30;99.90;;;;;;4972378;28;20038;-81
2023/02/14 13:14:51;;;;;;;23.23;20.75;;;13.30;99.90;;;;;;5003415;28;20057;-79
2023/02/14 13:17:39;;;;;;;24.52;20.75;;;13.30;99.90;;;;;;4966466;28;20044;-80
2023/02/14 13:20:23;;;;;;;30.25;21.45;;;13.30;99.90;;;;;;4985564;28;20117;-80
2023/02/14 13:22:54;;;;;;;23.73;21.20;;;13.30;99.90;;;;;;4974469;28;20437;-80
2023/02/14 13:25:32;;;;;;;28.15;22.35;;;13.30;99.90;;;;;;4986842;28;20053;-80
2023/02/14 13:28:03;;;;;;;22.65;20.25;;;13.40;99.90;;;;;;4968337;28;20084;-80
2023/02/14 13:30:32;;;;;;;22.10;19.75;;;13.40;99.90;;;;;;4969276;28;20054;-79
2023/02/14 13:33:05;;;;;;;22.92;20.40;;;13.70;99.90;;;;;;4981673;28;20183;-80
2023/02/14 13:35:32;;;;;;;23.90;21.50;;;13.70;99.90;;;;;;4974779;28;20049;-79
2023/02/14 13:38:03;;;;;;;23.00;20.60;;;13.50;99.90;;;;;;4976888;28;20037;-79
2023/02/14 13:40:31;;;;;;;23.33;20.98;;;13.30;99.90;;;;;;4987624;28;20077;-80
2023/02/14 13:42:58;;;;;;;25.45;22.27;;;13.10;99.90;;;;;;4990454;28;20140;-80
2023/02/14 13:45:36;;;;;;;24.30;21.73;;;13.30;99.90;;;;;;4965835;28;20050;-80
2023/02/14 13:48:08;;;;;;;24.88;22.23;;;13.30;99.90;;;;;;4978604;28;20046;-80
2023/02/14 13:50:38;;;;;;;26.17;23.15;;;12.70;99.90;;;;;;4970743;28;20053;-80
2023/02/14 13:53:04;;;;;;;28.48;23.30;;;12.50;99.90;;;;;;4969317;28;20049;-80
2023/02/14 13:55:36;;;;;;;25.83;23.27;;;13.10;99.90;;;;;;4968898;28;20042;-80
2023/02/14 13:58:18;;;;;;;27.08;22.85;;;13.00;99.90;;;;;;4967871;28;20038;-80